Girvan, United Kingdom
Current Conditions -  °F | °C
As of 8:20 AM on Sunday 21 Dec 2014 (Local Time) from EGPK Reporting Station
Rain Showers Rain Showers  
Wind Chill: 42°   Ceiling: 1300
Heat Index: 48°   Visibility: 6mi
Dew Point: 45°   Wind: 18mph
Humidity: 87%   Direction: 210°SSW
Pressure: 29.94"   Gusts: NA
Location:  55.24°N, 4.86°W
Report Text: EGPK 210820Z 21016KT 9999 -SHRA BKN013 09/07 Q1014
Loading
Personal Weather Stations






























Interactive Weather Map New forecast layout! Learn more

10-Day Weather Forecast

Advertisements
Track Severe Weather on mobile